Time;durP1;ratioP1;P1;durP2;ratioP2;P2;SDS_P1;SDS_P2;PMS_P1;PMS_P2;Temp;Humidity;BMP_temperature;BMP_pressure;BME280_temperature;BME280_humidity;BME280_pressure;Samples;Min_cycle;Max_cycle;Signal;HPM_P1;HPM_P2
2022/04/19 03:00:13;;;;;;;1.60;1.20;;;18.60;42.70;;;;;;6060721;23;45877;31
2022/04/19 03:02:39;;;;;;;1.42;1.10;;;18.60;42.70;;;;;;4893026;28;45174;-59
2022/04/19 03:05:05;;;;;;;1.38;1.17;;;18.60;42.70;;;;;;4909928;28;45272;-59
2022/04/19 03:07:31;;;;;;;1.00;0.90;;;18.60;42.80;;;;;;4932205;28;45287;-57
2022/04/19 03:09:56;;;;;;;1.00;0.90;;;18.60;42.70;;;;;;4931951;28;45560;-58
2022/04/19 03:12:22;;;;;;;0.93;0.75;;;18.60;42.80;;;;;;4920950;28;44785;-59
2022/04/19 03:14:48;;;;;;;1.10;1.00;;;18.60;42.90;;;;;;4921270;28;45446;-59
2022/04/19 03:17:13;;;;;;;1.00;0.90;;;18.60;42.90;;;;;;4905431;28;45118;-58
2022/04/19 03:19:39;;;;;;;1.20;1.08;;;18.60;42.90;;;;;;4926701;28;46000;-58
2022/04/19 03:22:05;;;;;;;1.00;0.90;;;18.60;42.90;;;;;;4922188;28;44957;-58
2022/04/19 03:29:59;;;;;;;1.42;0.90;;;18.60;42.90;;;;;;4930742;28;46057;-59
2022/04/19 03:32:25;;;;;;;0.98;0.80;;;18.60;42.90;;;;;;4905906;28;45384;-59
2022/04/19 03:34:50;;;;;;;1.02;0.93;;;18.60;42.90;;;;;;4921336;28;45036;-57
2022/04/19 03:37:16;;;;;;;1.55;1.00;;;18.60;42.90;;;;;;4927047;28;45278;-59
2022/04/19 03:39:42;;;;;;;0.98;0.80;;;18.60;42.90;;;;;;4927563;28;45425;-56
2022/04/19 03:42:08;;;;;;;1.42;1.00;;;18.50;42.90;;;;;;4916802;28;45300;-59
2022/04/19 03:44:34;;;;;;;0.70;0.70;;;18.50;43.00;;;;;;4911346;28;45232;-57
2022/04/19 03:47:09;;;;;;;1.10;1.00;;;18.50;43.00;;;;;;4923328;28;45251;-58
2022/04/19 03:49:38;;;;;;;1.05;0.73;;;18.50;43.00;;;;;;4918921;28;45748;-58
2022/04/19 03:52:04;;;;;;;1.40;1.00;;;18.50;43.00;;;;;;4909522;28;45028;-59
2022/04/19 03:54:34;;;;;;;0.80;0.80;;;18.50;43.00;;;;;;4902504;28;45462;-59
2022/04/19 03:57:04;;;;;;;1.15;0.85;;;18.60;43.10;;;;;;4895109;28;45391;-57
2022/04/19 03:59:33;;;;;;;1.00;0.80;;;18.50;43.10;;;;;;4911539;28;45543;-59
2022/04/19 04:01:59;;;;;;;0.90;0.80;;;18.50;43.10;;;;;;4928694;28;44917;-58
2022/04/19 04:04:30;;;;;;;1.38;1.10;;;18.50;43.10;;;;;;4905629;28;45158;-60
2022/04/19 04:06:57;;;;;;;1.05;0.93;;;18.50;43.10;;;;;;4918423;28;45560;-56
2022/04/19 04:09:23;;;;;;;1.00;0.90;;;18.50;43.10;;;;;;4928612;28;45418;-55
2022/04/19 04:11:49;;;;;;;1.88;1.08;;;18.50;43.20;;;;;;4937437;28;45118;-59
2022/04/19 04:14:14;;;;;;;1.42;0.88;;;18.50;43.20;;;;;;4929494;28;45170;-59
2022/04/19 04:16:40;;;;;;;1.10;0.90;;;18.50;43.10;;;;;;4935848;28;45133;-58
2022/04/19 04:19:06;;;;;;;1.45;1.00;;;18.50;43.10;;;;;;4937682;28;47050;-60
2022/04/19 04:21:31;;;;;;;1.30;1.00;;;18.50;43.20;;;;;;4923602;28;45367;-57
2022/04/19 04:23:57;;;;;;;1.30;1.00;;;18.40;43.20;;;;;;4900905;28;45132;-57
2022/04/19 04:26:22;;;;;;;1.13;1.05;;;18.40;43.20;;;;;;4931721;28;44883;-59
2022/04/19 04:28:48;;;;;;;0.80;0.80;;;18.50;43.20;;;;;;4915987;28;46591;-59
2022/04/19 04:31:13;;;;;;;1.00;0.90;;;18.40;43.20;;;;;;4938805;28;44662;-59
2022/04/19 04:33:39;;;;;;;0.95;0.90;;;18.40;43.20;;;;;;4941501;28;45215;-59
2022/04/19 04:36:05;;;;;;;1.05;0.80;;;18.40;43.30;;;;;;4937249;28;44724;-58
2022/04/19 04:38:30;;;;;;;1.20;0.90;;;18.40;43.30;;;;;;4937112;28;45647;-59
2022/04/19 04:40:56;;;;;;;0.88;0.80;;;18.40;43.30;;;;;;4934851;28;45185;-57
2022/04/19 04:43:22;;;;;;;0.80;0.80;;;18.40;43.40;;;;;;4941142;28;44941;-58
2022/04/19 04:49:35;;;;;;;1.10;1.00;;;18.40;43.40;;;;;;4923359;28;45252;-58
2022/04/19 04:51:19;;;;;;;0.95;0.80;;;18.40;43.40;;;;;;4920706;28;44675;-59
2022/04/19 04:53:45;;;;;;;1.10;0.70;;;18.40;43.40;;;;;;4932718;28;45098;-58
2022/04/19 04:56:11;;;;;;;1.58;0.90;;;18.40;43.40;;;;;;4932656;28;45213;-59
2022/04/19 04:58:36;;;;;;;1.23;1.13;;;18.40;43.40;;;;;;4935944;28;45433;-59
2022/04/19 05:01:02;;;;;;;1.00;0.90;;;18.40;43.50;;;;;;4916556;28;45507;-57
2022/04/19 05:03:28;;;;;;;0.93;0.82;;;18.40;43.40;;;;;;4917923;28;45243;-57
2022/04/19 05:05:53;;;;;;;0.88;0.85;;;18.40;43.50;;;;;;4915321;28;45259;-56
2022/04/19 05:08:19;;;;;;;1.17;1.00;;;18.30;43.50;;;;;;4933864;28;47085;-58
2022/04/19 05:10:44;;;;;;;1.65;0.90;;;18.30;43.50;;;;;;4924367;28;44918;-57
2022/04/19 05:13:10;;;;;;;0.82;0.73;;;18.30;43.50;;;;;;4909495;28;45330;-56
2022/04/19 05:15:35;;;;;;;0.95;0.90;;;18.40;43.50;;;;;;4914737;28;45150;-58
2022/04/19 05:18:01;;;;;;;0.95;0.80;;;18.30;43.50;;;;;;4917562;28;45758;-59
2022/04/19 05:20:27;;;;;;;1.80;1.20;;;18.40;43.50;;;;;;4916094;28;45228;-59
2022/04/19 05:22:52;;;;;;;0.90;0.85;;;18.40;43.60;;;;;;4919247;28;45206;-57
2022/04/19 05:25:18;;;;;;;1.25;1.00;;;18.30;43.50;;;;;;4916378;28;45132;-59
2022/04/19 05:27:43;;;;;;;1.80;1.00;;;18.40;43.40;;;;;;4908568;28;44942;-57
2022/04/19 05:30:09;;;;;;;1.08;0.98;;;18.50;43.30;;;;;;4916330;28;44645;-59
2022/04/19 05:32:35;;;;;;;1.48;1.00;;;18.50;43.30;;;;;;4911508;28;45256;-57
2022/04/19 05:35:01;;;;;;;1.13;0.98;;;18.50;43.20;;;;;;4924175;28;46517;-58
2022/04/19 05:37:26;;;;;;;1.15;0.95;;;18.50;43.20;;;;;;4917557;28;46060;-57
2022/04/19 05:39:52;;;;;;;0.85;0.85;;;18.50;43.20;;;;;;4916730;28;45043;-57
2022/04/19 05:42:17;;;;;;;1.30;1.10;;;18.50;43.10;;;;;;4915842;28;45117;-56
2022/04/19 05:44:43;;;;;;;1.08;0.98;;;18.60;43.20;;;;;;4923411;28;45131;-58
2022/04/19 05:47:09;;;;;;;1.02;0.93;;;18.60;43.10;;;;;;4916978;28;45443;-59
2022/04/19 05:49:35;;;;;;;1.25;1.10;;;18.60;43.20;;;;;;4914415;28;45229;-57
2022/04/19 05:52:02;;;;;;;1.13;1.00;;;18.60;43.10;;;;;;4909514;28;45908;-57
2022/04/19 05:54:27;;;;;;;0.85;0.85;;;18.60;43.10;;;;;;4913617;28;45399;-59
2022/04/19 05:56:53;;;;;;;1.23;0.90;;;18.60;43.00;;;;;;4921837;28;45347;-59
2022/04/19 05:59:19;;;;;;;2.17;1.02;;;18.70;43.00;;;;;;4912946;28;45153;-58
2022/04/19 06:07:13;;;;;;;1.02;0.93;;;18.70;42.90;;;;;;4942259;28;45767;-59
2022/04/19 06:09:38;;;;;;;1.20;1.02;;;18.80;42.80;;;;;;4931075;28;45157;-59
2022/04/19 06:12:05;;;;;;;1.38;0.98;;;18.90;42.70;;;;;;4933834;28;45816;-58
2022/04/19 06:14:30;;;;;;;0.93;0.70;;;19.00;42.50;;;;;;4915394;28;44702;-59
2022/04/19 06:16:56;;;;;;;1.10;1.00;;;19.20;42.40;;;;;;4931592;28;46583;-59
2022/04/19 06:19:22;;;;;;;3.35;0.90;;;19.40;42.20;;;;;;4930364;28;45604;-57
2022/04/19 06:21:48;;;;;;;0.80;0.80;;;19.50;42.00;;;;;;4917645;28;45315;-58
2022/04/19 06:24:14;;;;;;;3.00;0.80;;;19.60;41.80;;;;;;4933569;28;45390;-58
2022/04/19 06:26:39;;;;;;;1.45;0.90;;;19.70;41.70;;;;;;4935610;28;46250;-59
2022/04/19 06:29:06;;;;;;;0.80;0.80;;;19.80;41.70;;;;;;4938417;28;45115;-58
2022/04/19 06:31:32;;;;;;;0.80;0.80;;;19.90;41.60;;;;;;4923024;28;45198;-58
2022/04/19 06:33:58;;;;;;;0.85;0.80;;;20.00;41.50;;;;;;4943410;28;44771;-57
2022/04/19 06:36:23;;;;;;;1.05;0.88;;;20.20;41.50;;;;;;4919790;28;45200;-59
2022/04/19 06:38:49;;;;;;;3.03;0.77;;;20.30;41.30;;;;;;4937379;28;45417;-59
2022/04/19 06:41:15;;;;;;;0.60;0.60;;;20.40;41.30;;;;;;4930566;28;45471;-60
2022/04/19 06:43:40;;;;;;;1.05;0.70;;;20.50;41.20;;;;;;4932165;28;45192;-59
2022/04/19 06:46:08;;;;;;;3.22;1.00;;;20.70;41.10;;;;;;4930495;28;46584;-59
2022/04/19 06:48:34;;;;;;;0.80;0.75;;;20.80;41.00;;;;;;4909663;28;44755;-60
2022/04/19 06:51:01;;;;;;;1.38;0.90;;;20.90;40.80;;;;;;4917754;28;45315;-59
2022/04/19 06:53:30;;;;;;;1.63;0.85;;;21.00;40.80;;;;;;4934129;28;45498;-59
2022/04/19 06:55:56;;;;;;;0.80;0.80;;;21.00;40.70;;;;;;4931372;28;45376;-59
2022/04/19 06:58:22;;;;;;;0.60;0.60;;;21.00;40.60;;;;;;4942435;28;44729;-59
2022/04/19 07:00:47;;;;;;;1.45;1.20;;;21.00;40.80;;;;;;4938944;28;45066;-59
2022/04/19 07:03:13;;;;;;;1.77;0.70;;;21.00;40.80;;;;;;4938250;28;45228;-58
2022/04/19 07:05:39;;;;;;;1.15;0.82;;;21.00;40.90;;;;;;4932927;28;45269;-59
2022/04/19 07:08:05;;;;;;;5.38;0.60;;;21.00;41.00;;;;;;4922922;28;44934;-58
2022/04/19 07:10:31;;;;;;;0.90;0.77;;;21.00;41.10;;;;;;4941691;28;45193;-59
2022/04/19 07:12:56;;;;;;;1.13;0.70;;;21.00;41.20;;;;;;4911130;28;45488;-59
2022/04/19 07:15:22;;;;;;;1.10;0.68;;;21.00;41.20;;;;;;4914480;28;45301;-59
2022/04/19 07:17:48;;;;;;;0.73;0.73;;;21.00;41.20;;;;;;4938803;28;46605;-59
2022/04/19 07:28:26;;;;;;;0.90;0.90;;;21.00;41.40;;;;;;4939277;28;44698;-58
2022/04/19 07:30:52;;;;;;;1.33;0.90;;;21.10;41.50;;;;;;4944609;28;45190;-59
2022/04/19 07:33:17;;;;;;;0.95;0.70;;;21.10;41.50;;;;;;4930555;28;45633;-57
2022/04/19 07:35:44;;;;;;;1.13;0.60;;;21.10;41.50;;;;;;4932682;28;45297;-59
2022/04/19 07:38:10;;;;;;;1.02;0.77;;;21.10;41.50;;;;;;4931829;28;45205;-59
2022/04/19 07:40:36;;;;;;;2.00;0.60;;;21.10;41.50;;;;;;4916860;28;45436;-59
2022/04/19 07:43:02;;;;;;;0.80;0.80;;;21.10;41.50;;;;;;4931612;28;45270;-59
2022/04/19 07:45:29;;;;;;;0.80;0.73;;;21.10;41.50;;;;;;4905282;28;46999;-59
2022/04/19 07:47:55;;;;;;;1.00;0.77;;;21.20;41.60;;;;;;4914468;28;45284;-59
2022/04/19 07:50:21;;;;;;;1.05;0.70;;;21.20;41.60;;;;;;4935449;28;45253;-59
2022/04/19 07:52:46;;;;;;;0.68;0.68;;;21.20;41.60;;;;;;4916688;28;45244;-59
2022/04/19 07:55:12;;;;;;;0.80;0.80;;;21.20;41.60;;;;;;4943138;28;45538;-59
2022/04/19 07:57:37;;;;;;;1.20;0.90;;;21.20;41.70;;;;;;4916313;28;44844;-57
2022/04/19 08:00:04;;;;;;;2.30;0.90;;;21.20;41.60;;;;;;4934197;28;44890;-59
2022/04/19 08:02:30;;;;;;;3.78;0.98;;;21.20;41.70;;;;;;4925733;28;45688;-58
2022/04/19 08:04:56;;;;;;;1.98;0.90;;;21.20;41.70;;;;;;4920275;28;45770;-59
2022/04/19 08:07:22;;;;;;;0.98;0.85;;;21.20;41.70;;;;;;4920668;28;45300;-59
2022/04/19 08:09:47;;;;;;;0.90;0.65;;;21.20;41.70;;;;;;4919454;28;45339;-59
2022/04/19 08:12:13;;;;;;;2.33;0.70;;;21.20;41.70;;;;;;4919443;28;44947;-59
2022/04/19 08:14:41;;;;;;;0.70;0.70;;;21.20;41.70;;;;;;4913021;28;45548;-58
2022/04/19 08:17:07;;;;;;;1.40;0.90;;;21.20;41.80;;;;;;4924267;28;44911;-59
2022/04/19 08:19:33;;;;;;;1.40;0.70;;;21.20;41.80;;;;;;4920941;28;45258;-60
2022/04/19 08:21:58;;;;;;;1.52;0.90;;;21.20;41.80;;;;;;4914323;28;45167;-60
2022/04/19 08:24:24;;;;;;;1.38;0.80;;;21.20;41.80;;;;;;4907730;28;46212;-60
2022/04/19 08:26:49;;;;;;;1.02;0.73;;;21.20;41.80;;;;;;4906876;28;45140;-60
2022/04/19 08:29:15;;;;;;;0.70;0.70;;;21.20;41.80;;;;;;4916259;28;45168;-59
2022/04/19 08:31:41;;;;;;;1.48;0.80;;;21.20;42.50;;;;;;4897321;28;45323;-60
2022/04/19 08:34:06;;;;;;;1.65;0.80;;;21.20;41.90;;;;;;4912821;28;45483;-61
2022/04/19 08:36:34;;;;;;;1.35;0.75;;;21.20;41.90;;;;;;4919358;28;45228;-60
2022/04/19 08:39:00;;;;;;;1.60;0.88;;;21.20;41.90;;;;;;4911621;28;44903;-61
2022/04/19 08:41:25;;;;;;;1.52;0.70;;;21.20;42.00;;;;;;4914583;28;45342;-60
2022/04/19 08:43:52;;;;;;;2.78;0.80;;;21.20;42.00;;;;;;4922282;28;45189;-59
2022/04/19 08:46:18;;;;;;;2.30;0.70;;;21.20;42.00;;;;;;4914684;28;45257;-60
2022/04/19 08:48:43;;;;;;;2.05;0.68;;;21.20;42.00;;;;;;4910434;28;45321;-60
2022/04/19 08:51:10;;;;;;;1.85;0.70;;;21.30;42.00;;;;;;4913919;28;45294;-60
2022/04/19 08:59:05;;;;;;;0.80;0.80;;;21.20;41.90;;;;;;4912424;28;45407;-60
2022/04/19 09:01:30;;;;;;;2.47;0.95;;;21.30;41.90;;;;;;4920953;28;44727;-62
2022/04/19 09:03:56;;;;;;;1.58;0.70;;;21.30;41.90;;;;;;4932856;28;45096;-60
2022/04/19 09:06:24;;;;;;;1.13;0.90;;;21.30;41.90;;;;;;4914814;28;45154;-59
2022/04/19 09:09:07;;;;;;;1.20;0.98;;;21.30;42.00;;;;;;4901321;28;45177;-58
2022/04/19 09:11:33;;;;;;;1.13;0.90;;;21.30;42.00;;;;;;4913331;28;44940;-60
2022/04/19 09:14:08;;;;;;;1.70;0.90;;;21.30;41.90;;;;;;4917265;28;45522;-59
2022/04/19 09:16:34;;;;;;;1.40;0.93;;;21.30;41.90;;;;;;4938007;28;45503;-60
2022/04/19 09:19:00;;;;;;;5.22;1.05;;;21.30;41.90;;;;;;4934965;28;45610;-60
2022/04/19 09:21:39;;;;;;;1.20;0.80;;;21.40;41.90;;;;;;4917984;28;45359;-60
2022/04/19 09:24:18;;;;;;;1.92;0.93;;;21.40;41.90;;;;;;4919269;28;45512;-60
2022/04/19 09:26:44;;;;;;;1.85;0.90;;;21.40;41.90;;;;;;4899000;28;44736;-60
2022/04/19 09:29:18;;;;;;;1.27;0.85;;;21.40;41.90;;;;;;4917009;28;45277;-60
2022/04/19 09:31:43;;;;;;;;;;;21.40;41.90;;;;;;4913777;28;45201;-60
2022/04/19 09:34:09;;;;;;;0.70;0.60;;;21.40;42.00;;;;;;4930837;28;46579;-58
2022/04/19 09:36:34;;;;;;;0.93;0.77;;;21.40;41.90;;;;;;4908447;28;44797;-60
2022/04/19 09:39:00;;;;;;;1.38;0.95;;;21.40;41.90;;;;;;4916934;28;44864;-58
2022/04/19 09:41:30;;;;;;;2.72;0.82;;;21.40;41.90;;;;;;4937694;28;44746;-60
2022/04/19 09:44:15;;;;;;;0.90;0.70;;;21.40;41.90;;;;;;4917070;28;47140;-60
2022/04/19 09:47:04;;;;;;;1.25;0.90;;;21.40;42.60;;;;;;4914602;28;45163;-60
2022/04/19 09:49:42;;;;;;;1.08;0.90;;;21.40;42.00;;;;;;4917519;28;45051;-60
2022/04/19 09:52:08;;;;;;;0.93;0.60;;;21.40;42.00;;;;;;4932784;28;45501;-61
2022/04/19 09:54:34;;;;;;;1.23;0.80;;;21.40;42.00;;;;;;4932471;28;45659;-59
2022/04/19 09:57:06;;;;;;;0.95;0.73;;;21.40;42.00;;;;;;4914085;28;45242;-60
2022/04/19 09:59:32;;;;;;;0.88;0.70;;;21.40;42.00;;;;;;4918896;28;45205;-61
2022/04/19 10:10:23;;;;;;;0.95;0.60;;;21.50;42.10;;;;;;4900747;28;45230;-60
2022/04/19 10:12:48;;;;;;;0.80;0.80;;;21.40;42.00;;;;;;4908568;28;45093;-59
2022/04/19 10:15:14;;;;;;;3.47;0.90;;;21.50;42.00;;;;;;4914625;28;45957;-57
2022/04/19 10:17:40;;;;;;;1.35;0.70;;;21.40;42.00;;;;;;4918096;28;44733;-59
2022/04/19 10:20:07;;;;;;;1.73;0.63;;;21.40;42.00;;;;;;4912964;28;45061;-59
2022/04/19 10:22:32;;;;;;;1.33;0.82;;;21.40;42.00;;;;;;4929260;28;45617;-59
2022/04/19 10:24:58;;;;;;;0.95;0.73;;;21.40;42.10;;;;;;4929662;28;45309;-60
2022/04/19 10:27:31;;;;;;;1.30;0.73;;;21.40;42.00;;;;;;4911993;28;44951;-58
2022/04/19 10:29:57;;;;;;;1.27;0.70;;;21.40;42.00;;;;;;4913262;28;45606;-60
2022/04/19 10:32:33;;;;;;;1.38;0.85;;;21.40;42.10;;;;;;4889581;28;45650;-59
2022/04/19 10:35:03;;;;;;;0.80;0.70;;;21.40;42.00;;;;;;4931193;28;46176;-63
2022/04/19 10:37:29;;;;;;;4.65;0.88;;;21.30;42.00;;;;;;4909718;28;45632;-59
2022/04/19 10:39:58;;;;;;;2.00;0.80;;;21.40;42.10;;;;;;4910273;28;46627;-59
2022/04/19 10:42:33;;;;;;;0.70;0.70;;;21.30;42.10;;;;;;4934614;28;44903;-57
2022/04/19 10:45:18;;;;;;;1.67;0.88;;;21.30;42.10;;;;;;4926388;28;45968;-57
2022/04/19 10:47:59;;;;;;;2.03;0.75;;;21.30;42.20;;;;;;4933598;28;45251;-58
2022/04/19 10:50:29;;;;;;;0.60;0.60;;;21.40;42.20;;;;;;4937115;28;45297;-60
2022/04/19 10:52:58;;;;;;;2.83;0.90;;;21.30;42.10;;;;;;4935979;28;45368;-59
2022/04/19 10:55:26;;;;;;;1.55;0.65;;;21.30;42.30;;;;;;4917734;28;46459;-60
2022/04/19 10:58:15;;;;;;;1.50;0.68;;;21.20;42.20;;;;;;4902721;28;45207;-58
2022/04/19 11:00:41;;;;;;;1.00;0.50;;;21.30;42.30;;;;;;4931757;28;44726;-59
2022/04/19 11:03:11;;;;;;;2.85;1.00;;;21.30;42.40;;;;;;4928880;28;45471;-59
2022/04/19 11:05:43;;;;;;;1.05;0.82;;;21.30;42.30;;;;;;4928995;28;45331;-59
2022/04/19 11:08:21;;;;;;;1.02;0.90;;;21.30;42.40;;;;;;4915061;28;45218;-61
2022/04/19 11:10:50;;;;;;;0.80;0.70;;;21.30;42.40;;;;;;4933384;28;45430;-59
2022/04/19 11:13:16;;;;;;;7.03;1.13;;;21.30;42.40;;;;;;4935013;28;45024;-59
2022/04/19 11:15:42;;;;;;;1.48;0.80;;;21.30;42.40;;;;;;4914298;28;45321;-60
2022/04/19 11:18:24;;;;;;;1.30;0.80;;;21.30;42.40;;;;;;4913423;28;45263;-59
2022/04/19 11:20:51;;;;;;;1.20;0.90;;;21.30;42.40;;;;;;4932209;28;44710;-59
2022/04/19 11:23:19;;;;;;;1.60;0.90;;;21.30;42.40;;;;;;4911091;28;45405;-60
2022/04/19 11:25:45;;;;;;;2.65;0.95;;;21.30;42.40;;;;;;4921720;28;46525;-59
2022/04/19 11:28:11;;;;;;;2.25;0.80;;;21.30;42.40;;;;;;4897690;28;44635;-60
2022/04/19 11:30:57;;;;;;;1.08;0.80;;;21.30;42.40;;;;;;4929558;28;45240;-57
2022/04/19 11:33:33;;;;;;;1.80;0.88;;;21.30;42.50;;;;;;4920020;28;45158;-58
2022/04/19 11:36:02;;;;;;;2.42;0.70;;;21.40;42.50;;;;;;4902993;28;46678;-60
2022/04/19 11:38:29;;;;;;;3.92;1.15;;;21.40;42.50;;;;;;4911121;28;44698;-59
2022/04/19 11:49:08;;;;;;;0.95;0.80;;;21.40;42.50;;;;;;4917083;28;44656;-60
2022/04/19 11:51:37;;;;;;;0.98;0.60;;;21.40;42.60;;;;;;4894629;28;45477;-60
2022/04/19 11:54:04;;;;;;;0.80;0.80;;;21.40;42.60;;;;;;4914489;28;45552;-56
2022/04/19 11:56:30;;;;;;;1.25;0.85;;;21.40;42.60;;;;;;4909773;28;46442;-61
2022/04/19 11:58:58;;;;;;;0.55;0.50;;;21.40;42.60;;;;;;4931433;28;45306;-58
2022/04/19 12:01:23;;;;;;;0.93;0.80;;;21.40;42.60;;;;;;4892543;28;45761;-60
2022/04/19 12:03:49;;;;;;;1.05;0.80;;;21.40;42.60;;;;;;4917320;28;44746;-59
2022/04/19 12:06:16;;;;;;;1.30;0.75;;;21.40;42.70;;;;;;4936261;28;46294;-60
2022/04/19 12:08:43;;;;;;;0.70;0.65;;;21.40;42.70;;;;;;4934860;28;45191;-60
2022/04/19 12:11:11;;;;;;;5.20;0.90;;;21.40;42.60;;;;;;4910887;28;44991;-60
2022/04/19 12:13:39;;;;;;;0.60;0.60;;;21.40;42.70;;;;;;4897121;28;44799;-60
2022/04/19 12:16:09;;;;;;;1.23;0.68;;;21.40;42.60;;;;;;4898438;28;46077;-60
2022/04/19 12:18:35;;;;;;;1.33;0.60;;;21.50;42.70;;;;;;4915783;28;45322;-59
2022/04/19 12:21:02;;;;;;;4.15;0.90;;;21.50;42.70;;;;;;4934685;28;44962;-61
2022/04/19 12:23:28;;;;;;;1.58;0.68;;;21.50;42.80;;;;;;4917647;28;45363;-60
2022/04/19 12:26:01;;;;;;;1.42;0.80;;;21.50;42.70;;;;;;4930192;28;45397;-60
2022/04/19 12:28:45;;;;;;;2.05;0.45;;;21.50;42.70;;;;;;4929578;28;45180;-61
2022/04/19 12:31:30;;;;;;;0.95;0.75;;;21.50;42.70;;;;;;4908226;28;45505;-59
2022/04/19 12:33:56;;;;;;;9.85;0.80;;;21.50;42.70;;;;;;4926528;28;45538;-61
2022/04/19 12:36:25;;;;;;;1.38;0.60;;;21.50;42.70;;;;;;4928502;28;45277;-60
2022/04/19 12:39:01;;;;;;;0.60;0.60;;;21.50;42.70;;;;;;4916641;28;45298;-60
2022/04/19 12:41:38;;;;;;;0.73;0.70;;;21.50;42.70;;;;;;4895923;28;44751;-60
2022/04/19 12:44:04;;;;;;;0.60;0.60;;;21.60;42.80;;;;;;4912963;28;45542;-60
2022/04/19 12:46:33;;;;;;;0.75;0.70;;;21.50;42.70;;;;;;4928492;28;45555;-60
2022/04/19 12:48:59;;;;;;;0.60;0.60;;;21.60;42.70;;;;;;4930822;28;44583;-59
2022/04/19 12:51:24;;;;;;;0.55;0.55;;;21.50;42.70;;;;;;4912084;28;45467;-59
2022/04/19 12:54:06;;;;;;;1.80;0.90;;;21.50;42.70;;;;;;4931475;28;44773;-60
2022/04/19 12:56:33;;;;;;;0.73;0.57;;;21.70;42.50;;;;;;4913155;28;46494;-60
2022/04/19 12:58:59;;;;;;;1.30;0.80;;;21.60;42.60;;;;;;4913474;28;45551;-59
2022/04/19 13:01:24;;;;;;;1.35;0.90;;;21.60;42.70;;;;;;4895240;28;45660;-60
2022/04/19 13:03:50;;;;;;;1.15;0.65;;;21.60;42.70;;;;;;4940285;28;45224;-59
2022/04/19 13:14:29;;;;;;;0.60;0.60;;;21.60;42.70;;;;;;4930234;28;45291;-59
2022/04/19 13:16:54;;;;;;;3.38;0.73;;;21.60;42.70;;;;;;4929757;28;47091;-60
2022/04/19 13:19:20;;;;;;;0.68;0.57;;;21.60;42.80;;;;;;4905518;28;44989;-60
2022/04/19 13:21:45;;;;;;;0.73;0.60;;;21.60;42.70;;;;;;4927744;28;45196;-59
2022/04/19 13:24:11;;;;;;;0.90;0.50;;;21.70;42.80;;;;;;4931221;28;45724;-60
2022/04/19 13:26:37;;;;;;;2.10;0.60;;;21.60;42.80;;;;;;4926296;28;45371;-61
2022/04/19 13:29:02;;;;;;;0.75;0.65;;;21.60;42.80;;;;;;4901456;28;45234;-60
2022/04/19 13:31:28;;;;;;;1.35;0.73;;;21.60;42.80;;;;;;4929467;28;45519;-59
2022/04/19 13:33:54;;;;;;;0.95;0.70;;;21.60;42.80;;;;;;4932043;28;45491;-60
2022/04/19 13:36:19;;;;;;;1.35;0.80;;;21.60;42.80;;;;;;4928650;28;46472;-61
2022/04/19 13:38:45;;;;;;;2.97;0.75;;;21.60;42.80;;;;;;4918957;28;45571;-60
2022/04/19 13:41:11;;;;;;;2.03;0.60;;;21.70;42.90;;;;;;4931511;28;45601;-58
2022/04/19 13:43:39;;;;;;;0.75;0.73;;;21.70;42.90;;;;;;4930864;28;45324;-60
2022/04/19 13:46:05;;;;;;;2.28;0.70;;;21.70;42.80;;;;;;4903294;28;45522;-59
2022/04/19 13:48:31;;;;;;;3.53;0.80;;;21.70;42.80;;;;;;4915867;28;44839;-61
2022/04/19 13:50:56;;;;;;;2.25;0.70;;;21.70;43.40;;;;;;4941012;28;45348;-61
2022/04/19 13:53:22;;;;;;;0.85;0.85;;;21.70;42.90;;;;;;4929561;28;45231;-60
2022/04/19 13:55:48;;;;;;;2.28;0.90;;;21.70;42.90;;;;;;4914311;28;46559;-61
2022/04/19 13:58:13;;;;;;;0.55;0.50;;;21.70;42.90;;;;;;4898561;28;45196;-60
2022/04/19 14:00:39;;;;;;;1.13;0.80;;;21.70;42.90;;;;;;4935480;28;45175;-60
2022/04/19 14:03:04;;;;;;;0.77;0.65;;;21.70;42.90;;;;;;4911349;28;45598;-60
2022/04/19 14:05:31;;;;;;;2.55;0.90;;;21.70;42.90;;;;;;4913157;28;46289;-60
2022/04/19 14:07:57;;;;;;;2.15;0.60;;;21.70;42.90;;;;;;4884109;28;45360;-60
2022/04/19 14:10:22;;;;;;;1.25;0.60;;;21.70;42.90;;;;;;4896087;28;45250;-59
2022/04/19 14:12:48;;;;;;;2.33;0.65;;;21.70;42.90;;;;;;4927900;28;45233;-59
2022/04/19 14:15:14;;;;;;;0.88;0.80;;;21.70;42.90;;;;;;4902867;28;46571;-59
2022/04/19 14:17:40;;;;;;;2.05;0.55;;;21.70;42.90;;;;;;4936018;28;44693;-60
2022/04/19 14:20:06;;;;;;;0.60;0.50;;;21.70;42.90;;;;;;4932010;28;45571;-60
2022/04/19 14:22:33;;;;;;;1.13;0.50;;;21.70;43.00;;;;;;4910009;28;45224;-58
2022/04/19 14:24:59;;;;;;;1.50;1.02;;;21.70;43.00;;;;;;4932917;28;45698;-60
2022/04/19 14:27:24;;;;;;;1.13;0.70;;;21.70;43.00;;;;;;4921143;28;45045;-60
2022/04/19 14:35:23;;;;;;;1.55;0.68;;;21.70;43.00;;;;;;4920705;28;45251;-56
2022/04/19 14:37:49;;;;;;;0.55;0.55;;;21.70;43.00;;;;;;4930741;28;45238;-58
2022/04/19 14:40:14;;;;;;;0.63;0.50;;;21.70;43.10;;;;;;4932860;28;45306;-59
2022/04/19 14:42:40;;;;;;;1.35;0.70;;;21.70;43.10;;;;;;4930592;28;45318;-59
2022/04/19 14:45:06;;;;;;;2.92;0.60;;;21.60;43.20;;;;;;4934117;28;45291;-58
2022/04/19 14:47:32;;;;;;;1.70;0.50;;;21.70;43.20;;;;;;4925649;28;45384;-57
2022/04/19 14:49:58;;;;;;;1.27;0.65;;;21.60;43.20;;;;;;4893768;28;45638;-59
2022/04/19 14:52:24;;;;;;;0.63;0.50;;;21.60;43.30;;;;;;4914018;28;45075;-55
2022/04/19 14:54:51;;;;;;;0.70;0.50;;;21.60;43.30;;;;;;4933088;28;46377;-59
2022/04/19 14:57:18;;;;;;;0.60;0.55;;;21.60;43.30;;;;;;4915324;28;44717;-59
2022/04/19 14:59:43;;;;;;;0.68;0.57;;;21.60;43.30;;;;;;4910451;28;44686;-59
2022/04/19 15:02:11;;;;;;;0.88;0.55;;;21.60;43.30;;;;;;4892574;28;45433;-59
2022/04/19 15:04:37;;;;;;;0.60;0.40;;;21.60;43.30;;;;;;4893383;28;47067;-57
2022/04/19 15:07:03;;;;;;;0.57;0.50;;;21.60;43.20;;;;;;4910327;28;45234;-59
2022/04/19 15:09:29;;;;;;;0.55;0.55;;;21.60;43.20;;;;;;4913707;28;45115;-59
2022/04/19 15:11:55;;;;;;;0.73;0.70;;;21.60;43.20;;;;;;4905877;28;46837;-59
2022/04/19 15:14:21;;;;;;;5.70;1.05;;;21.60;43.20;;;;;;4911927;28;46652;-59
2022/04/19 15:16:47;;;;;;;0.63;0.60;;;21.60;42.40;;;;;;4907862;28;45694;-57
2022/04/19 15:19:13;;;;;;;5.15;0.80;;;21.60;41.50;;;;;;4911430;28;45149;-60
2022/04/19 15:21:39;;;;;;;4.55;0.70;;;21.50;39.50;;;;;;4908173;28;45140;-59
2022/04/19 15:24:05;;;;;;;1.70;0.60;;;21.50;38.00;;;;;;4931154;28;45941;-60
2022/04/19 15:26:30;;;;;;;0.52;0.50;;;21.40;37.30;;;;;;4902387;28;45176;-60
2022/04/19 15:28:56;;;;;;;2.30;0.68;;;21.40;36.90;;;;;;4910212;28;45234;-59
2022/04/19 15:31:21;;;;;;;1.45;0.70;;;21.40;36.10;;;;;;4914276;28;46679;-60
2022/04/19 15:33:47;;;;;;;3.40;0.52;;;21.30;35.20;;;;;;4910322;28;45423;-60
2022/04/19 15:36:16;;;;;;;7.15;0.70;;;21.30;34.40;;;;;;4910441;28;45259;-59
2022/04/19 15:38:42;;;;;;;1.95;0.70;;;21.30;33.50;;;;;;4903157;28;45409;-58
2022/04/19 15:41:11;;;;;;;3.60;0.60;;;21.30;34.00;;;;;;4906788;28;45524;-60
2022/04/19 15:43:36;;;;;;;1.92;0.65;;;21.20;33.10;;;;;;4902746;28;45274;-60
2022/04/19 15:46:02;;;;;;;2.88;0.43;;;21.20;32.80;;;;;;4908015;28;45176;-59
2022/04/19 15:48:32;;;;;;;0.55;0.40;;;21.20;32.70;;;;;;4898813;28;45300;-58
2022/04/19 15:50:58;;;;;;;4.03;0.75;;;21.20;32.20;;;;;;4903987;28;45319;-58
2022/04/19 15:53:24;;;;;;;0.63;0.50;;;21.10;32.00;;;;;;4888975;28;46203;-59
2022/04/19 15:55:50;;;;;;;1.42;0.55;;;21.10;31.80;;;;;;4908093;28;45207;-57
2022/04/19 15:58:15;;;;;;;3.80;0.47;;;21.00;31.70;;;;;;4904758;28;44910;-58
2022/04/19 16:00:41;;;;;;;1.13;0.57;;;21.00;31.50;;;;;;4908061;28;45877;-60
2022/04/19 16:03:07;;;;;;;1.63;0.60;;;21.00;31.40;;;;;;4907324;28;46652;-56
2022/04/19 16:05:32;;;;;;;2.05;0.60;;;20.90;31.30;;;;;;4907089;28;45573;-59
2022/04/19 16:07:58;;;;;;;1.15;0.60;;;20.90;31.20;;;;;;4910832;28;45297;-58
2022/04/19 16:10:24;;;;;;;0.80;0.50;;;20.90;30.60;;;;;;4927925;28;45234;-59
2022/04/19 16:12:52;;;;;;;0.60;0.43;;;20.80;30.90;;;;;;4905731;28;46349;-59
2022/04/19 16:15:21;;;;;;;0.80;0.68;;;20.70;31.10;;;;;;4880252;28;45529;-59
2022/04/19 16:23:21;;;;;;;0.70;0.70;;;20.80;31.80;;;;;;4911605;28;46550;-59
2022/04/19 16:25:48;;;;;;;1.83;0.63;;;20.80;31.80;;;;;;4910439;28;45573;-59
2022/04/19 16:28:14;;;;;;;1.38;0.88;;;20.80;31.90;;;;;;4893431;28;45377;-57
2022/04/19 16:30:40;;;;;;;2.42;0.60;;;20.80;32.10;;;;;;4908752;28;45414;-57
2022/04/19 16:33:05;;;;;;;3.00;0.93;;;20.80;32.30;;;;;;4893666;28;45982;-57
2022/04/19 16:35:35;;;;;;;2.90;0.50;;;20.80;32.40;;;;;;4914061;28;45489;-58
2022/04/19 16:38:00;;;;;;;0.82;0.57;;;20.80;32.60;;;;;;4914992;28;46441;-56
2022/04/19 16:40:26;;;;;;;0.98;0.73;;;20.80;32.70;;;;;;4908645;28;45638;-59
2022/04/19 16:42:52;;;;;;;3.25;0.88;;;20.80;32.80;;;;;;4911793;28;45256;-58
2022/04/19 16:45:18;;;;;;;1.23;0.73;;;20.80;33.20;;;;;;4912730;28;44777;-57
2022/04/19 16:47:46;;;;;;;1.08;0.57;;;20.80;33.30;;;;;;4911939;28;45922;-57
2022/04/19 16:50:13;;;;;;;0.50;0.50;;;20.80;33.60;;;;;;4913911;28;45230;-57